TAPATNCE

Guest
Details From TAPA - Antigua - V C Bird Intl
To TNCE - St Eustatius/F D Roosevelt
Flight Number -
Tags generated
Created
Modified
Stats Distance 72 nm / 132 km
Max Altitude 2,000 ft / 610 m
Waypoints 3
Social Downloads 1
Likes 0
Share VATSIM

Download

Looking for another format? Having issues loading an existing format? Contact us
Advertisement - Login to hide

Notes

Basic altitude profile: - Ascent Rate: 2500ft/min - Ascent Speed: 250kts - Cruise Altitude: 35000ft - Cruise Speed: 420kts - Descent Rate: 1500ft/min - Descent Speed: 250kts

Route

TAPA TIKAL TNCE

ID Type Via Altitude Latitude Longitude Leg Dist Tot Dist Heading (true) Name
O TAPA APT - 0 ft / 0 m 17.13674˚ -61.79266˚ - 0 nm - Antigua - V C Bird Intl
TIKAL FIX - 2,000 ft / 610 m 17.47381˚ -62.81800˚ 62 nm 62 nm 289° / 289° -
O TNCE APT - 0 ft / 0 m 17.49649˚ -62.97944˚ 9 nm 71 nm 278° / 278° St Eustatius/F D Roosevelt

Altitude Profile

Advertisement - Login to hide

TAPA

Details ICAO TAPA (ANU)
Name Antigua - V C Bird Intl
Region Antigua and Barbuda
Timezone America/Antigua (UTC-4.0)
Stats Elevation 62 ft / 19 m (AMSL)
Location 17.136737° -61.792662°
Runways 1
Magnetic Variation 14.767° W

METAR

TAPA 160000Z 07013KT 9999 -SHRA BKN017 25/22 Q1017 NOSIG

Decode

TAF

Not found

Departure Runways

ID Width Length Bearing (true) Bearing (mag) Surface Threshold Offset Overrun Length
07 148 ft / 45 m 9,022 ft / 2,750 m 58.28° 73.05° Asphalt 656 ft / 200 m 0 ft / 0 m
25 148 ft / 45 m 9,022 ft / 2,750 m 238.29° 253.06° Asphalt 0 ft / 0 m 0 ft / 0 m

TNCE

Details ICAO TNCE (EUX)
Name St Eustatius/F D Roosevelt
Region Caribbean Netherlands, Aruba, Curaçao, Sint Maarten
Timezone America/Curacao (UTC-4.0)
Stats Elevation 129 ft / 39 m (AMSL)
Location 17.496492° -62.979439°
Runways 1
Magnetic Variation 14.361° W

METAR

TNCE 152355Z AUTO 06011KT 030V090 //// // ///////// 26/23 Q1017 RE//

Decode

TAF

Not found

Destination Runways

ID Width Length Bearing (true) Bearing (mag) Surface Threshold Offset Overrun Length
06 98 ft / 30 m 4,302 ft / 1,311 m 49.97° 64.33° Asphalt 0 ft / 0 m 0 ft / 0 m
24 98 ft / 30 m 4,302 ft / 1,311 m 229.97° 244.33° Asphalt 0 ft / 0 m 0 ft / 0 m

Popular Alternatives